createdAt,value
2022-10-23T00:01:29.426Z,18.20
2022-10-23T00:04:33.947Z,18.90
2022-10-23T00:07:08.890Z,19.20
2022-10-23T00:09:45.247Z,17.50
2022-10-23T00:12:24.379Z,17.70
2022-10-23T00:15:01.665Z,17.30
2022-10-23T00:17:36.801Z,16.90
2022-10-23T00:20:15.928Z,17.00
2022-10-23T00:22:54.060Z,16.90
2022-10-23T00:25:31.429Z,17.50
2022-10-23T00:28:09.641Z,15.90
2022-10-23T00:30:47.846Z,16.20
2022-10-23T00:33:26.366Z,16.30
2022-10-23T00:36:02.458Z,17.10
2022-10-23T00:38:42.476Z,16.40
2022-10-23T00:41:28.037Z,16.20
2022-10-23T00:44:11.183Z,18.20
2022-10-23T00:46:52.464Z,17.90
2022-10-23T00:49:32.488Z,17.30
2022-10-23T00:52:15.949Z,18.60
2022-10-23T00:54:51.085Z,18.90
2022-10-23T00:57:26.477Z,16.50
2022-10-23T01:00:05.703Z,18.40
2022-10-23T01:02:43.209Z,19.30
2022-10-23T01:05:19.925Z,18.40
2022-10-23T01:08:07.352Z,17.70
2022-10-23T01:11:02.766Z,18.30
2022-10-23T01:13:43.941Z,20.50
2022-10-23T01:16:32.392Z,18.30
2022-10-23T01:19:23.708Z,18.50
2022-10-23T01:22:41.906Z,19.30
2022-10-23T01:25:48.429Z,19.80
2022-10-23T01:28:39.233Z,18.50
2022-10-23T01:31:23.588Z,19.40
2022-10-23T01:34:11.319Z,21.20
2022-10-23T01:36:53.528Z,21.50
2022-10-23T01:39:44.941Z,22.40
2022-10-23T01:42:25.346Z,23.20
2022-10-23T01:45:20.714Z,22.10
2022-10-23T01:48:01.029Z,21.10
2022-10-23T01:50:39.257Z,21.50
2022-10-23T01:53:15.960Z,21.40
2022-10-23T01:55:52.655Z,20.10
2022-10-23T01:58:34.835Z,19.90
2022-10-23T02:01:16.003Z,21.10
2022-10-23T02:06:46.663Z,19.00
2022-10-23T02:09:20.875Z,19.30
2022-10-23T02:12:49.775Z,18.60
2022-10-23T02:15:44.264Z,16.90
2022-10-23T02:18:27.684Z,18.00
2022-10-23T02:21:13.277Z,17.90
2022-10-23T02:23:57.326Z,16.20
2022-10-23T02:26:48.633Z,15.70
2022-10-23T02:29:54.295Z,16.50
2022-10-23T02:32:40.021Z,17.10
2022-10-23T02:35:22.394Z,15.10
2022-10-23T02:38:07.493Z,15.10
2022-10-23T02:40:48.682Z,15.70
2022-10-23T02:43:43.830Z,13.90
2022-10-23T02:46:47.725Z,14.10
2022-10-23T02:49:37.768Z,14.70
2022-10-23T02:52:33.355Z,13.80
2022-10-23T02:55:15.878Z,12.70
2022-10-23T02:58:10.358Z,13.80
2022-10-23T03:00:58.406Z,13.50
2022-10-23T03:03:38.641Z,11.90
2022-10-23T03:06:18.132Z,12.70
2022-10-23T03:09:07.519Z,12.90
2022-10-23T03:11:47.504Z,11.30
2022-10-23T03:14:28.185Z,11.10
2022-10-23T03:17:09.152Z,12.10
2022-10-23T03:19:45.522Z,12.00
2022-10-23T03:22:23.121Z,10.90
2022-10-23T03:25:00.401Z,10.70
2022-10-23T03:27:38.923Z,10.80
2022-10-23T03:30:17.441Z,11.10
2022-10-23T03:33:04.867Z,10.60
2022-10-23T03:35:45.548Z,10.30
2022-10-23T03:38:19.050Z,11.10
2022-10-23T03:40:59.078Z,9.60
2022-10-23T03:43:41.692Z,9.70
2022-10-23T03:46:19.631Z,10.20
2022-10-23T03:49:03.026Z,10.40
2022-10-23T03:51:45.229Z,9.40
2022-10-23T03:54:25.648Z,9.60
2022-10-23T03:57:08.100Z,10.50
2022-10-23T04:09:31.217Z,9.60
2022-10-23T04:12:10.673Z,9.30
2022-10-23T04:14:47.642Z,9.40
2022-10-23T04:17:25.733Z,9.80
2022-10-23T04:20:05.232Z,10.50
2022-10-23T04:22:45.665Z,9.00
2022-10-23T04:25:23.850Z,9.50
2022-10-23T04:28:01.758Z,9.90
2022-10-23T04:30:42.818Z,10.00
2022-10-23T04:33:25.100Z,9.50
2022-10-23T04:36:02.533Z,9.30
2022-10-23T04:38:40.119Z,9.70
2022-10-23T04:41:17.718Z,9.40
2022-10-23T04:43:56.857Z,9.50
2022-10-23T04:46:33.217Z,9.70
2022-10-23T04:49:10.506Z,9.90
2022-10-23T04:52:07.916Z,9.00
2022-10-23T04:54:44.417Z,8.90
2022-10-23T04:57:31.582Z,9.70
2022-10-23T05:00:20.203Z,10.00
2022-10-23T05:03:01.173Z,9.40
2022-10-23T05:05:48.600Z,9.70
2022-10-23T05:08:51.078Z,10.50
2022-10-23T05:11:48.330Z,9.30
2022-10-23T05:14:22.898Z,10.10
2022-10-23T05:17:10.282Z,10.30
2022-10-23T05:19:53.711Z,10.00
2022-10-23T05:22:36.227Z,9.50
2022-10-23T05:25:22.107Z,10.50
2022-10-23T05:28:03.388Z,11.00
2022-10-23T05:30:37.605Z,10.20
2022-10-23T05:33:17.658Z,10.00
2022-10-23T05:35:50.644Z,10.50
2022-10-23T05:38:28.551Z,11.10
2022-10-23T05:41:14.349Z,12.00
2022-10-23T05:43:51.739Z,22.30
2022-10-23T05:46:46.528Z,17.30
2022-10-23T05:49:54.833Z,11.90
2022-10-23T05:52:54.240Z,10.70
2022-10-23T05:55:41.360Z,10.80
2022-10-23T05:58:43.223Z,11.80
2022-10-23T06:01:35.652Z,11.30
2022-10-23T06:04:13.791Z,12.00
2022-10-23T06:07:10.411Z,13.10
2022-10-23T06:09:46.470Z,14.30
2022-10-23T06:12:22.228Z,14.00
2022-10-23T06:14:58.905Z,13.60
2022-10-23T06:17:45.999Z,15.30
2022-10-23T06:20:26.661Z,13.30
2022-10-23T06:23:18.746Z,14.00
2022-10-23T06:26:18.560Z,14.30
2022-10-23T06:29:20.912Z,13.60
2022-10-23T06:31:56.042Z,13.10
2022-10-23T06:34:33.341Z,13.80
2022-10-23T06:37:12.368Z,14.40
2022-10-23T06:39:48.861Z,12.30
2022-10-23T06:42:27.661Z,12.90
2022-10-23T06:45:03.413Z,13.40
2022-10-23T06:48:04.663Z,13.30
2022-10-23T06:51:00.375Z,13.50
2022-10-23T06:53:42.523Z,13.50
2022-10-23T06:56:33.924Z,14.20
2022-10-23T06:59:14.177Z,13.40
2022-10-23T07:01:51.478Z,12.90
2022-10-23T07:04:26.189Z,13.80
2022-10-23T07:07:01.759Z,14.40
2022-10-23T07:09:46.888Z,13.30
2022-10-23T07:12:31.022Z,13.30
2022-10-23T07:15:34.925Z,15.90
2022-10-23T07:18:17.143Z,14.70
2022-10-23T07:21:14.654Z,14.30
2022-10-23T07:23:50.460Z,15.00
2022-10-23T07:26:31.861Z,15.30
2022-10-23T07:29:14.454Z,13.60
2022-10-23T07:31:52.546Z,13.70
2022-10-23T07:34:45.114Z,13.90
2022-10-23T07:37:38.175Z,14.40
2022-10-23T07:40:12.281Z,12.10
2022-10-23T07:42:53.891Z,12.20
2022-10-23T07:45:32.439Z,12.50
2022-10-23T07:48:15.197Z,12.60
2022-10-23T07:51:18.963Z,11.60
2022-10-23T07:54:04.848Z,12.50
2022-10-23T07:57:03.898Z,12.10
2022-10-23T08:00:03.968Z,12.30
2022-10-23T08:02:54.442Z,11.80
2022-10-23T08:05:32.009Z,13.20
2022-10-23T08:08:16.059Z,12.80
2022-10-23T08:10:57.331Z,12.20
2022-10-23T08:13:38.925Z,12.10
2022-10-23T08:16:15.927Z,12.30
2022-10-23T08:19:14.188Z,11.70
2022-10-23T08:34:22.183Z,13.90
2022-10-23T08:36:51.769Z,14.30
2022-10-23T08:39:21.575Z,13.80
2022-10-23T08:42:05.055Z,14.90
2022-10-23T08:44:41.697Z,16.30
2022-10-23T08:47:37.759Z,15.40
2022-10-23T08:50:39.564Z,14.80
2022-10-23T08:54:02.502Z,15.10
2022-10-23T08:56:38.764Z,15.50
2022-10-23T08:59:23.273Z,15.90
2022-10-23T09:02:06.903Z,15.10
2022-10-23T09:04:39.051Z,16.00
2022-10-23T09:07:25.069Z,16.60
2022-10-23T09:10:12.881Z,14.20
2022-10-23T09:12:42.611Z,13.50
2022-10-23T09:15:32.949Z,14.20
2022-10-23T09:18:13.129Z,14.80
2022-10-23T09:20:48.448Z,13.50
2022-10-23T09:23:32.266Z,14.10
2022-10-23T09:26:09.919Z,14.70
2022-10-23T09:29:04.085Z,16.00
2022-10-23T09:31:50.949Z,14.60
2022-10-23T09:34:23.779Z,16.40
2022-10-23T09:37:00.398Z,16.80
2022-10-23T09:39:34.889Z,15.10
2022-10-23T09:42:22.766Z,15.50
2022-10-23T09:44:56.113Z,16.80
2022-10-23T09:47:29.744Z,18.10
2022-10-23T09:50:03.080Z,16.60
2022-10-23T09:52:41.848Z,16.00
2022-10-23T09:55:24.629Z,16.10
2022-10-23T09:57:56.464Z,16.60
2022-10-23T10:00:28.598Z,16.00
2022-10-23T10:03:05.351Z,15.40
2022-10-23T10:05:52.266Z,12.50
2022-10-23T10:08:54.451Z,12.60
2022-10-23T10:11:45.576Z,12.80
2022-10-23T10:14:31.380Z,11.60
2022-10-23T10:17:31.163Z,10.90
2022-10-23T10:20:29.105Z,11.20
2022-10-23T10:23:04.496Z,11.70
2022-10-23T10:25:42.604Z,11.40
2022-10-23T10:28:28.418Z,10.90
2022-10-23T10:31:11.980Z,11.50
2022-10-23T10:34:08.621Z,11.40
2022-10-23T10:36:43.465Z,11.00
2022-10-23T10:39:22.053Z,10.90
2022-10-23T10:42:33.154Z,10.90
2022-10-23T10:45:18.520Z,10.20
2022-10-23T10:48:11.287Z,9.30
2022-10-23T10:51:17.500Z,9.80
2022-10-23T10:54:10.003Z,10.00
2022-10-23T10:56:43.630Z,9.30
2022-10-23T10:59:26.350Z,8.50
2022-10-23T11:01:54.994Z,8.60
2022-10-23T11:04:49.303Z,7.90
2022-10-23T11:07:24.578Z,8.30
2022-10-23T11:09:59.738Z,9.00
2022-10-23T11:12:30.351Z,8.20
2022-10-23T11:15:02.148Z,8.70
2022-10-23T11:17:39.279Z,8.50
2022-10-23T11:20:36.318Z,8.00
2022-10-23T11:23:44.419Z,7.70
2022-10-23T11:26:34.260Z,7.70
2022-10-23T11:29:18.464Z,7.70
2022-10-23T11:32:14.366Z,8.90
2022-10-23T11:35:04.144Z,7.70
2022-10-23T11:37:33.903Z,7.50
2022-10-23T11:40:24.442Z,7.60
2022-10-23T11:42:57.267Z,8.40
2022-10-23T11:45:37.404Z,8.40
2022-10-23T11:48:23.175Z,8.50
2022-10-23T11:51:00.213Z,8.60
2022-10-23T11:53:34.395Z,9.30
2022-10-23T11:56:27.547Z,8.50
2022-10-23T11:59:00.479Z,9.60
2022-10-23T12:01:42.913Z,10.20
2022-10-23T12:04:14.638Z,9.80
2022-10-23T12:07:15.122Z,9.80
2022-10-23T12:09:54.769Z,9.20
2022-10-23T12:12:41.452Z,9.60
2022-10-23T12:15:23.168Z,8.90
2022-10-23T12:17:54.704Z,9.10
2022-10-23T12:20:49.105Z,9.30
2022-10-23T12:23:45.823Z,8.80
2022-10-23T12:26:33.584Z,9.30
2022-10-23T12:29:18.045Z,8.00
2022-10-23T12:32:10.452Z,7.90
2022-10-23T12:35:30.436Z,7.10
2022-10-23T12:38:06.060Z,7.40
2022-10-23T12:40:39.759Z,7.40
2022-10-23T12:43:41.158Z,7.20
2022-10-23T12:46:12.967Z,6.20
2022-10-23T12:48:54.678Z,5.90
2022-10-23T12:51:27.651Z,7.90
2022-10-23T12:53:57.880Z,6.40
2022-10-23T12:56:37.977Z,6.00
2022-10-23T12:59:20.399Z,5.50
2022-10-23T13:01:52.892Z,5.30
2022-10-23T13:04:33.892Z,5.00
2022-10-23T13:07:05.153Z,5.60
2022-10-23T13:09:38.958Z,5.00
2022-10-23T13:12:25.733Z,4.80
2022-10-23T13:14:58.851Z,4.70
2022-10-23T13:17:45.811Z,4.60
2022-10-23T13:20:19.038Z,4.70
2022-10-23T13:22:57.688Z,4.60
2022-10-23T13:25:33.841Z,4.40
2022-10-23T13:28:34.656Z,4.60
2022-10-23T13:31:07.666Z,4.10
2022-10-23T13:33:45.958Z,4.70
2022-10-23T13:36:14.784Z,4.40
2022-10-23T13:38:46.831Z,4.80
2022-10-23T13:41:20.276Z,4.60
2022-10-23T13:43:48.896Z,5.30
2022-10-23T13:46:19.977Z,5.30
2022-10-23T13:48:49.441Z,4.90
2022-10-23T13:51:38.837Z,5.00
2022-10-23T13:54:20.150Z,5.20
2022-10-23T13:56:52.852Z,6.50
2022-10-23T13:59:22.598Z,6.10
2022-10-23T14:01:54.068Z,6.30
2022-10-23T14:04:24.006Z,6.20
2022-10-23T14:06:58.855Z,5.90
2022-10-23T14:09:27.919Z,5.80
2022-10-23T14:12:00.222Z,5.80
2022-10-23T14:14:29.786Z,6.00
2022-10-23T14:16:58.692Z,6.20
2022-10-23T14:19:27.548Z,6.30
2022-10-23T14:21:56.404Z,6.50
2022-10-23T14:24:25.156Z,6.60
2022-10-23T14:26:55.075Z,6.80
2022-10-23T14:29:24.625Z,6.20
2022-10-23T14:31:53.663Z,6.90
2022-10-23T14:34:22.322Z,6.10
2022-10-23T14:37:07.338Z,6.40
2022-10-23T14:39:40.234Z,6.50
2022-10-23T14:42:13.436Z,6.00
2022-10-23T14:44:50.260Z,6.10
2022-10-23T14:47:23.324Z,6.70
2022-10-23T14:49:54.806Z,6.70
2022-10-23T14:52:24.530Z,5.90
2022-10-23T14:54:55.178Z,5.90
2022-10-23T14:57:27.916Z,6.00
2022-10-23T14:59:57.725Z,6.40
2022-10-23T15:02:26.225Z,6.20
2022-10-23T15:04:57.010Z,6.40
2022-10-23T15:07:26.758Z,6.20
2022-10-23T15:09:56.227Z,6.30
2022-10-23T15:12:25.126Z,5.80
2022-10-23T15:14:54.462Z,6.30
2022-10-23T15:17:24.423Z,6.20
2022-10-23T15:19:57.546Z,6.40
2022-10-23T15:22:27.176Z,6.70
2022-10-23T15:24:57.145Z,6.10
2022-10-23T15:27:25.720Z,6.40
2022-10-23T15:29:54.902Z,6.40
2022-10-23T15:32:23.946Z,6.60
2022-10-23T15:34:55.044Z,8.00
2022-10-23T15:37:24.849Z,6.50
2022-10-23T15:39:58.363Z,7.30
2022-10-23T15:42:30.059Z,7.60
2022-10-23T15:44:58.859Z,11.60
2022-10-23T15:47:27.835Z,12.10
2022-10-23T15:49:56.663Z,8.20
2022-10-23T15:52:25.265Z,7.30
2022-10-23T15:54:53.934Z,9.50
2022-10-23T15:57:22.022Z,12.20
2022-10-23T15:59:51.165Z,48.30
2022-10-23T16:02:20.081Z,56.00
2022-10-23T16:04:49.217Z,46.00
2022-10-23T16:07:18.839Z,46.70
2022-10-23T16:09:47.497Z,52.70
2022-10-23T16:12:16.369Z,49.90
2022-10-23T16:14:46.026Z,49.30
2022-10-23T16:19:43.982Z,51.20
2022-10-23T16:22:14.204Z,53.10
2022-10-23T16:24:43.356Z,45.80
2022-10-23T16:27:12.371Z,32.80
2022-10-23T16:29:40.690Z,29.80
2022-10-23T16:32:09.106Z,30.90
2022-10-23T16:34:38.182Z,56.80
2022-10-23T16:37:08.300Z,52.30
2022-10-23T16:39:50.323Z,47.30
2022-10-23T16:42:39.909Z,53.80
2022-10-23T16:45:15.366Z,64.90
2022-10-23T16:47:45.487Z,69.60
2022-10-23T16:50:16.269Z,74.50
2022-10-23T16:52:45.627Z,67.30
2022-10-23T16:55:18.005Z,37.90
2022-10-23T16:57:46.918Z,29.00
2022-10-23T17:00:17.480Z,64.10
2022-10-23T17:02:46.570Z,57.80
2022-10-23T17:05:22.362Z,71.50
2022-10-23T17:07:50.756Z,86.50
2022-10-23T17:19:56.726Z,26.00
2022-10-23T17:22:25.590Z,29.20
2022-10-23T17:24:54.584Z,34.60
2022-10-23T17:27:23.527Z,31.40
2022-10-23T17:29:57.422Z,29.90
2022-10-23T17:32:26.820Z,57.80
2022-10-23T17:34:55.745Z,55.90
2022-10-23T17:37:26.684Z,71.60
2022-10-23T17:40:00.970Z,52.60
2022-10-23T17:42:31.337Z,43.90
2022-10-23T17:45:03.367Z,45.60
2022-10-23T17:47:34.350Z,42.70
2022-10-23T17:50:04.270Z,44.60
2022-10-23T17:52:36.218Z,46.60
2022-10-23T17:55:11.392Z,58.10
2022-10-23T17:57:41.906Z,60.90
2022-10-23T18:00:12.906Z,51.30
2022-10-23T18:02:43.842Z,47.80
2022-10-23T18:05:14.840Z,52.40
2022-10-23T18:07:49.240Z,50.60
2022-10-23T18:10:19.196Z,48.70
2022-10-23T18:12:48.180Z,52.10
2022-10-23T18:15:17.336Z,54.00
2022-10-23T18:17:46.387Z,53.80
2022-10-23T18:20:16.461Z,50.70
2022-10-23T18:22:45.932Z,55.40
2022-10-23T18:25:15.472Z,56.20
2022-10-23T18:27:47.726Z,51.50
2022-10-23T18:30:17.176Z,51.30
2022-10-23T18:32:47.542Z,54.70
2022-10-23T18:35:16.289Z,57.50
2022-10-23T18:37:49.887Z,54.60
2022-10-23T18:40:24.286Z,48.00
2022-10-23T18:42:57.735Z,49.10
2022-10-23T18:45:27.139Z,49.50
2022-10-23T18:47:56.919Z,48.80
2022-10-23T18:50:28.732Z,49.10
2022-10-23T18:52:57.572Z,52.40
2022-10-23T18:55:25.987Z,52.70
2022-10-23T18:57:55.231Z,47.70
2022-10-23T19:00:27.435Z,47.70
2022-10-23T19:02:59.139Z,45.40
2022-10-23T19:05:29.154Z,42.80
2022-10-23T19:08:03.419Z,43.20
2022-10-23T19:10:35.670Z,48.30
2022-10-23T19:13:05.629Z,52.80
2022-10-23T19:15:37.327Z,48.70
2022-10-23T19:18:07.835Z,48.30
2022-10-23T19:20:38.101Z,52.10
2022-10-23T19:23:07.380Z,51.00
2022-10-23T19:25:38.367Z,47.30
2022-10-23T19:28:07.252Z,48.60
2022-10-23T19:30:36.678Z,49.80
2022-10-23T19:33:06.422Z,49.10
2022-10-23T19:35:34.543Z,45.90
2022-10-23T19:48:47.023Z,40.90
2022-10-23T19:51:59.856Z,42.90
2022-10-23T19:54:28.107Z,43.20
2022-10-23T19:56:57.086Z,43.00
2022-10-23T19:59:30.560Z,45.30
2022-10-23T20:01:58.681Z,42.80
2022-10-23T20:04:26.753Z,39.90
2022-10-23T20:06:56.008Z,38.40
2022-10-23T20:09:25.703Z,36.40
2022-10-23T20:11:55.416Z,37.00
2022-10-23T20:14:23.441Z,37.30
2022-10-23T20:16:55.686Z,37.40
2022-10-23T20:19:24.387Z,38.40
2022-10-23T20:21:57.858Z,36.90
2022-10-23T20:24:25.812Z,36.30
2022-10-23T20:26:55.160Z,36.20
2022-10-23T20:29:24.084Z,34.50
2022-10-23T20:31:52.665Z,30.70
2022-10-23T20:34:22.197Z,31.40
2022-10-23T20:36:49.707Z,29.60
2022-10-23T20:39:21.027Z,28.00
2022-10-23T20:41:48.159Z,27.00
2022-10-23T20:44:18.476Z,26.80
2022-10-23T20:46:46.290Z,28.50
2022-10-23T20:49:15.679Z,27.90
2022-10-23T20:51:43.395Z,26.90
2022-10-23T20:54:10.731Z,28.10
2022-10-23T20:56:39.438Z,29.30
2022-10-23T20:59:11.459Z,29.20
2022-10-23T21:01:41.770Z,27.80
2022-10-23T21:04:13.141Z,30.20
2022-10-23T21:06:57.821Z,28.80
2022-10-23T21:09:30.083Z,27.60
2022-10-23T21:11:57.735Z,27.20
2022-10-23T21:14:26.176Z,28.70
2022-10-23T21:16:53.022Z,28.30
2022-10-23T21:19:19.887Z,26.00
2022-10-23T21:21:48.907Z,25.80
2022-10-23T21:24:17.147Z,26.00
2022-10-23T21:26:44.703Z,26.50
2022-10-23T21:29:20.858Z,24.80
2022-10-23T21:31:56.768Z,25.90
2022-10-23T21:34:25.058Z,26.60
2022-10-23T21:37:12.030Z,26.20
2022-10-23T21:39:44.352Z,25.30
2022-10-23T21:42:13.413Z,25.30
2022-10-23T21:44:40.498Z,26.80
2022-10-23T21:47:07.149Z,24.50
2022-10-23T21:49:34.184Z,23.80
2022-10-23T21:52:06.094Z,25.60
2022-10-23T21:54:32.890Z,24.00
2022-10-23T21:57:03.561Z,23.80
2022-10-23T21:59:33.229Z,23.90
2022-10-23T22:02:02.245Z,24.10
2022-10-23T22:04:29.063Z,24.20
2022-10-23T22:06:55.706Z,23.10
2022-10-23T22:09:22.338Z,24.70
2022-10-23T22:11:50.882Z,27.60
2022-10-23T22:14:18.967Z,27.60
2022-10-23T22:16:45.991Z,24.70
2022-10-23T22:19:16.346Z,24.10
2022-10-23T22:21:43.575Z,26.60
2022-10-23T22:24:10.673Z,26.40
2022-10-23T22:26:41.293Z,25.00
2022-10-23T22:29:11.201Z,25.40
2022-10-23T22:31:38.484Z,26.80
2022-10-23T22:34:18.708Z,26.20
2022-10-23T22:36:55.330Z,24.20
2022-10-23T22:39:22.684Z,24.60
2022-10-23T22:41:49.775Z,25.60
2022-10-23T22:44:16.395Z,22.50
2022-10-23T22:46:43.960Z,22.80
2022-10-23T22:49:10.950Z,25.00
2022-10-23T22:51:39.064Z,24.70
2022-10-23T22:54:06.325Z,23.60
2022-10-23T22:56:34.713Z,24.90
2022-10-23T22:59:01.894Z,27.10
2022-10-23T23:01:30.152Z,26.70
2022-10-23T23:04:04.277Z,26.80
2022-10-23T23:06:44.906Z,27.70
2022-10-23T23:09:17.026Z,27.70
2022-10-23T23:11:51.719Z,28.10
2022-10-23T23:14:23.180Z,27.00
2022-10-23T23:16:52.367Z,26.40
2022-10-23T23:19:22.368Z,25.10
2022-10-23T23:21:49.315Z,28.80
2022-10-23T23:24:15.760Z,28.60
2022-10-23T23:26:42.374Z,26.90
2022-10-23T23:29:09.207Z,25.20
2022-10-23T23:31:35.673Z,22.40
2022-10-23T23:34:02.367Z,23.50
2022-10-23T23:36:29.224Z,23.10
2022-10-23T23:38:57.335Z,25.20
2022-10-23T23:41:26.878Z,22.60
2022-10-23T23:43:55.935Z,22.60
2022-10-23T23:46:24.098Z,22.10
2022-10-23T23:48:50.475Z,21.50
2022-10-23T23:51:19.973Z,22.30
2022-10-23T23:53:47.772Z,21.30
2022-10-23T23:56:14.609Z,20.70
2022-10-23T23:58:41.266Z,21.70
